Time;durP1;ratioP1;P1;durP2;ratioP2;P2;SDS_P1;SDS_P2;PMS_P1;PMS_P2;Temp;Humidity;BMP_temperature;BMP_pressure;BME280_temperature;BME280_humidity;BME280_pressure;Samples;Min_cycle;Max_cycle;Signal;HPM_P1;HPM_P2
2021/11/03 00:02:19;;;;;;;1.60;1.30;;;6.10;98.20;;;;;;5046123;28;20467;-76
2021/11/03 00:04:45;;;;;;;1.60;1.30;;;6.10;98.20;;;;;;5044198;28;20466;-76
2021/11/03 00:07:14;;;;;;;1.63;1.40;;;6.10;98.20;;;;;;5043146;28;20483;-75
2021/11/03 00:09:41;;;;;;;1.63;1.40;;;6.10;98.20;;;;;;5044727;28;20989;-75
2021/11/03 00:12:12;;;;;;;1.63;1.40;;;6.10;98.20;;;;;;5043150;28;20525;-75
2021/11/03 00:14:39;;;;;;;1.60;1.40;;;6.10;98.20;;;;;;5040746;28;20451;-75
2021/11/03 00:17:07;;;;;;;1.60;1.40;;;6.10;98.20;;;;;;5046567;28;20490;-75
2021/11/03 00:19:34;;;;;;;1.60;1.30;;;6.10;98.20;;;;;;5047514;28;20458;-75
2021/11/03 00:22:01;;;;;;;1.60;1.30;;;6.10;98.20;;;;;;5047387;28;20470;-75
2021/11/03 00:24:28;;;;;;;1.60;1.30;;;6.10;98.20;;;;;;5040804;28;20463;-75
2021/11/03 00:26:54;;;;;;;1.60;1.40;;;6.10;98.20;;;;;;5043527;28;20985;-78
2021/11/03 00:29:23;;;;;;;1.60;1.30;;;6.10;98.20;;;;;;5040263;28;20479;-75
2021/11/03 00:31:49;;;;;;;1.63;1.40;;;6.10;98.20;;;;;;5042745;28;20471;-74
2021/11/03 00:34:16;;;;;;;1.63;1.40;;;6.10;98.20;;;;;;5048360;28;20466;-74
2021/11/03 00:36:43;;;;;;;1.60;1.40;;;6.10;98.20;;;;;;5048211;28;20497;-74
2021/11/03 00:39:09;;;;;;;1.60;1.30;;;6.10;98.20;;;;;;5049369;28;20462;-75
2021/11/03 00:41:36;;;;;;;1.60;1.30;;;6.10;98.20;;;;;;5041954;28;20470;-74
2021/11/03 00:44:04;;;;;;;1.60;1.30;;;6.10;98.20;;;;;;5046604;28;20466;-74
2021/11/03 00:46:32;;;;;;;1.60;1.30;;;6.10;98.20;;;;;;5040178;28;20572;-74
2021/11/03 00:48:59;;;;;;;2.83;2.63;;;6.10;98.20;;;;;;5040097;28;20469;-74
2021/11/03 00:51:25;;;;;;;1.60;1.40;;;6.00;98.20;;;;;;5039315;28;20463;-75
2021/11/03 00:53:52;;;;;;;1.60;1.40;;;6.00;98.20;;;;;;5043799;28;20466;-75
2021/11/03 00:56:19;;;;;;;1.67;1.40;;;6.00;98.20;;;;;;5042451;28;20505;-74
2021/11/03 00:58:45;;;;;;;1.67;1.40;;;6.00;98.20;;;;;;5040167;28;20470;-74
2021/11/03 01:01:12;;;;;;;1.60;1.30;;;6.00;98.20;;;;;;5039936;28;20469;-76
2021/11/03 01:03:40;;;;;;;1.70;1.60;;;6.00;98.20;;;;;;5047132;28;20458;-76
2021/11/03 01:06:07;;;;;;;1.70;1.40;;;6.00;98.20;;;;;;5035083;28;20490;-76
2021/11/03 01:08:34;;;;;;;1.60;1.30;;;6.00;98.20;;;;;;5040092;28;20995;-76
2021/11/03 01:11:02;;;;;;;1.60;1.40;;;6.00;98.20;;;;;;5044385;28;20490;-75
2021/11/03 01:13:30;;;;;;;1.60;1.30;;;6.00;98.20;;;;;;5047016;28;20462;-75
2021/11/03 01:15:58;;;;;;;1.60;1.30;;;6.00;98.20;;;;;;5050071;28;20466;-77
2021/11/03 01:18:26;;;;;;;1.60;1.30;;;6.00;98.20;;;;;;5042986;28;20458;-76
2021/11/03 01:20:55;;;;;;;1.70;1.40;;;6.00;98.20;;;;;;5050945;28;20455;-74
2021/11/03 01:23:22;;;;;;;1.60;1.30;;;6.00;98.20;;;;;;5049211;28;20469;-76
2021/11/03 01:25:51;;;;;;;1.70;1.40;;;6.00;98.20;;;;;;5044953;28;20462;-75
2021/11/03 01:28:18;;;;;;;1.67;1.47;;;6.00;98.20;;;;;;5043502;28;20469;-77
2021/11/03 01:30:46;;;;;;;1.63;1.30;;;6.00;98.20;;;;;;5049885;28;20486;-76
2021/11/03 01:33:14;;;;;;;1.60;1.30;;;6.10;98.20;;;;;;5047464;28;20461;-74
2021/11/03 01:35:41;;;;;;;1.63;1.30;;;6.10;98.20;;;;;;5042970;28;20681;-74
2021/11/03 01:38:09;;;;;;;1.70;1.50;;;6.10;98.20;;;;;;5040352;28;20485;-74
2021/11/03 01:40:40;;;;;;;1.60;1.40;;;6.10;98.20;;;;;;5046899;28;20962;-74
2021/11/03 01:43:09;;;;;;;2.63;2.40;;;6.10;98.20;;;;;;5040956;28;20802;-74
2021/11/03 01:45:36;;;;;;;1.60;1.40;;;6.10;98.20;;;;;;5049521;28;20470;-74
2021/11/03 01:48:05;;;;;;;1.60;1.30;;;6.10;98.20;;;;;;5046807;28;20489;-74
2021/11/03 01:50:36;;;;;;;1.60;1.30;;;6.10;98.20;;;;;;5050089;28;20493;-74
2021/11/03 01:53:09;;;;;;;1.60;1.30;;;6.10;98.20;;;;;;5044778;28;20493;-75
2021/11/03 01:55:42;;;;;;;2.00;1.80;;;6.10;98.20;;;;;;5043641;28;20470;-74
2021/11/03 01:58:15;;;;;;;1.60;1.30;;;6.10;98.20;;;;;;5046803;28;20478;-74
2021/11/03 02:00:45;;;;;;;1.63;1.30;;;6.10;98.20;;;;;;5049405;28;20466;-74
2021/11/03 02:03:15;;;;;;;1.60;1.30;;;6.10;98.20;;;;;;5044785;28;20557;-75
2021/11/03 02:05:45;;;;;;;1.63;1.30;;;6.10;98.20;;;;;;5042585;28;20847;-74
2021/11/03 02:08:12;;;;;;;1.67;1.40;;;6.10;98.20;;;;;;5046196;28;20473;-75
2021/11/03 02:10:40;;;;;;;1.60;1.30;;;6.10;98.20;;;;;;5045006;28;20489;-75
2021/11/03 02:13:10;;;;;;;1.60;1.30;;;6.00;98.20;;;;;;5048527;28;20462;-74
2021/11/03 02:15:37;;;;;;;1.60;1.30;;;6.00;98.20;;;;;;5042226;28;20751;-74
2021/11/03 02:18:06;;;;;;;1.67;1.30;;;6.00;98.20;;;;;;5046758;28;20501;-74
2021/11/03 02:20:33;;;;;;;1.60;1.30;;;6.00;98.20;;;;;;5050169;28;20465;-74
2021/11/03 02:23:10;;;;;;;1.60;1.30;;;6.00;98.20;;;;;;5052052;28;20466;-74
2021/11/03 02:25:46;;;;;;;1.60;1.40;;;6.00;98.20;;;;;;5049188;28;20547;-74
2021/11/03 02:28:14;;;;;;;1.60;1.30;;;6.00;98.20;;;;;;5040506;28;21166;-75
2021/11/03 02:30:41;;;;;;;1.60;1.40;;;6.10;98.20;;;;;;5049510;28;20493;-74
2021/11/03 02:33:13;;;;;;;1.60;1.30;;;6.10;98.20;;;;;;5050642;28;20466;-74
2021/11/03 02:35:40;;;;;;;1.60;1.40;;;6.00;98.20;;;;;;5044546;28;20521;-74
2021/11/03 02:38:08;;;;;;;1.60;1.30;;;6.10;98.20;;;;;;5038973;28;20461;-74
2021/11/03 02:40:43;;;;;;;1.60;1.30;;;6.00;98.20;;;;;;5047521;28;20450;-75
2021/11/03 02:43:17;;;;;;;1.60;1.40;;;6.10;98.20;;;;;;5045895;28;20989;-75
2021/11/03 02:45:48;;;;;;;1.60;1.33;;;6.00;98.20;;;;;;5047829;28;20617;-74
2021/11/03 02:48:16;;;;;;;1.60;1.40;;;6.00;98.20;;;;;;5035018;28;20512;-74
2021/11/03 02:51:05;;;;;;;1.60;1.30;;;6.00;98.20;;;;;;5046647;28;20517;-75
2021/11/03 02:53:36;;;;;;;1.60;1.37;;;6.00;98.20;;;;;;5049356;28;20839;-75
2021/11/03 02:56:04;;;;;;;1.63;1.33;;;6.00;98.20;;;;;;5049818;28;20530;-76
2021/11/03 02:58:32;;;;;;;1.60;1.30;;;6.00;98.20;;;;;;5048472;28;20470;-74
2021/11/03 03:01:12;;;;;;;1.60;1.30;;;6.00;98.20;;;;;;5046844;28;20470;-74
2021/11/03 03:03:44;;;;;;;1.63;1.40;;;6.00;98.20;;;;;;5045813;28;20461;-75
2021/11/03 03:06:14;;;;;;;1.60;1.30;;;6.00;98.20;;;;;;5041229;28;20489;-76
2021/11/03 03:08:41;;;;;;;1.60;1.40;;;6.00;98.20;;;;;;5045508;28;20958;-76
2021/11/03 03:11:09;;;;;;;1.60;1.30;;;6.00;98.20;;;;;;5037066;28;20773;-76
2021/11/03 03:13:36;;;;;;;1.70;1.40;;;6.00;98.20;;;;;;5048480;28;20856;-76
2021/11/03 03:16:03;;;;;;;1.63;1.30;;;6.00;98.20;;;;;;5042670;28;20498;-75
2021/11/03 03:18:30;;;;;;;1.60;1.40;;;6.00;98.20;;;;;;5046058;28;20463;-76
2021/11/03 03:20:56;;;;;;;3.10;2.80;;;6.00;98.20;;;;;;5040882;28;20463;-75
2021/11/03 03:23:23;;;;;;;1.60;1.40;;;6.00;98.20;;;;;;5048573;28;20458;-75
2021/11/03 03:25:52;;;;;;;1.70;1.40;;;6.00;98.20;;;;;;5042725;28;20466;-76
2021/11/03 03:28:20;;;;;;;1.63;1.40;;;6.00;98.20;;;;;;5037816;28;20487;-76
2021/11/03 03:30:47;;;;;;;1.63;1.40;;;6.10;98.20;;;;;;5044575;28;20478;-78
2021/11/03 03:33:14;;;;;;;1.60;1.30;;;6.10;98.20;;;;;;5045966;28;20473;-77
2021/11/03 03:35:41;;;;;;;1.70;1.40;;;6.10;98.20;;;;;;5047113;28;21016;-76
2021/11/03 03:38:08;;;;;;;1.60;1.30;;;6.10;98.20;;;;;;5044738;28;20476;-76
2021/11/03 03:40:34;;;;;;;1.60;1.40;;;6.20;98.20;;;;;;5045073;28;20879;-76
2021/11/03 03:43:01;;;;;;;1.63;1.40;;;6.20;98.20;;;;;;5041490;28;20954;-77
2021/11/03 03:45:30;;;;;;;1.67;1.40;;;6.20;98.20;;;;;;5047057;28;20477;-77
2021/11/03 03:47:56;;;;;;;1.60;1.37;;;6.20;98.20;;;;;;5048663;28;20878;-78
2021/11/03 03:50:23;;;;;;;1.63;1.40;;;6.20;98.20;;;;;;5043793;28;20490;-77
2021/11/03 03:52:50;;;;;;;1.60;1.30;;;6.20;98.20;;;;;;5043999;28;20808;-77
2021/11/03 03:55:17;;;;;;;1.63;1.40;;;6.20;98.20;;;;;;5049625;28;20477;-76
2021/11/03 03:57:43;;;;;;;1.70;1.50;;;6.20;98.20;;;;;;5048209;28;21019;-78
2021/11/03 04:00:16;;;;;;;1.60;1.40;;;6.20;98.20;;;;;;5046376;28;20465;-76
2021/11/03 04:02:45;;;;;;;1.60;1.33;;;6.20;98.20;;;;;;5044944;28;20454;-76
2021/11/03 04:05:12;;;;;;;1.60;1.40;;;6.20;98.20;;;;;;5050187;28;20466;-77
2021/11/03 04:07:39;;;;;;;1.63;1.40;;;6.20;98.20;;;;;;5046499;28;20494;-76
2021/11/03 04:10:08;;;;;;;1.60;1.30;;;6.20;98.20;;;;;;5040239;28;20488;-76
2021/11/03 04:12:35;;;;;;;1.60;1.30;;;6.20;98.20;;;;;;5044165;28;20477;-75
2021/11/03 04:15:02;;;;;;;1.60;1.30;;;6.20;98.20;;;;;;5041368;28;20466;-75
2021/11/03 04:17:29;;;;;;;1.60;1.30;;;6.20;98.20;;;;;;5043024;28;20498;-75
2021/11/03 04:19:57;;;;;;;1.60;1.30;;;6.20;98.20;;;;;;5041781;28;20462;-75
2021/11/03 04:22:24;;;;;;;3.13;2.93;;;6.20;98.20;;;;;;5043603;28;20458;-75
2021/11/03 04:24:50;;;;;;;1.67;1.40;;;6.20;98.20;;;;;;5043888;28;20462;-75
2021/11/03 04:27:17;;;;;;;1.63;1.40;;;6.20;98.20;;;;;;5038632;28;21006;-75
2021/11/03 04:29:44;;;;;;;1.70;1.30;;;6.20;98.20;;;;;;5047051;28;20462;-75
2021/11/03 04:32:11;;;;;;;1.63;1.30;;;6.20;98.20;;;;;;5045394;28;21010;-76
2021/11/03 04:34:38;;;;;;;1.60;1.30;;;6.30;98.20;;;;;;5044444;28;20471;-75
2021/11/03 04:37:07;;;;;;;1.60;1.30;;;6.20;98.20;;;;;;5043226;28;20490;-75
2021/11/03 04:39:34;;;;;;;1.63;1.40;;;6.20;98.20;;;;;;5047245;28;20457;-75
2021/11/03 04:42:00;;;;;;;1.60;1.30;;;6.20;98.20;;;;;;5046787;28;20469;-76
2021/11/03 04:44:27;;;;;;;1.60;1.30;;;6.20;98.20;;;;;;5044678;28;20454;-76
2021/11/03 04:46:54;;;;;;;1.60;1.40;;;6.30;98.20;;;;;;5037920;28;20562;-75
2021/11/03 04:49:21;;;;;;;1.60;1.27;;;6.30;98.20;;;;;;5040145;28;20473;-75
2021/11/03 04:51:47;;;;;;;1.67;1.30;;;6.30;98.20;;;;;;5046454;28;20493;-75
2021/11/03 04:54:15;;;;;;;1.60;1.30;;;6.30;98.20;;;;;;5043682;28;20458;-76
2021/11/03 04:56:42;;;;;;;1.60;1.37;;;6.30;98.20;;;;;;5038338;28;20498;-75
2021/11/03 04:59:10;;;;;;;1.60;1.30;;;6.30;98.20;;;;;;5039672;28;20474;-75
2021/11/03 05:01:36;;;;;;;1.60;1.30;;;6.20;98.20;;;;;;5046120;28;21123;-77
2021/11/03 05:04:04;;;;;;;1.70;1.40;;;6.30;98.20;;;;;;5044580;28;20470;-75
2021/11/03 05:06:35;;;;;;;1.60;1.30;;;6.30;98.20;;;;;;5031505;28;20494;-75
2021/11/03 05:09:03;;;;;;;1.67;1.40;;;6.30;98.20;;;;;;5042825;28;20482;-74
2021/11/03 05:11:31;;;;;;;1.70;1.40;;;6.30;98.20;;;;;;5037067;28;20482;-75
2021/11/03 05:13:58;;;;;;;1.60;1.30;;;6.20;98.20;;;;;;5053641;22;20494;-75
2021/11/03 05:16:27;;;;;;;1.60;1.30;;;6.20;98.20;;;;;;5043957;28;20763;-76
2021/11/03 05:18:55;;;;;;;1.60;1.30;;;6.20;98.20;;;;;;5041448;28;20940;-76
2021/11/03 05:21:26;;;;;;;1.70;1.60;;;6.10;98.20;;;;;;5041662;28;20458;-74
2021/11/03 05:24:02;;;;;;;1.60;1.30;;;6.10;98.20;;;;;;5041518;28;20945;-74
2021/11/03 05:26:29;;;;;;;1.60;1.40;;;6.10;98.20;;;;;;5051351;28;20470;-75
2021/11/03 05:29:01;;;;;;;1.60;1.30;;;6.10;98.20;;;;;;5049294;28;20471;-75
2021/11/03 05:31:29;;;;;;;2.00;1.80;;;6.10;98.20;;;;;;5048228;28;20493;-75
2021/11/03 05:33:56;;;;;;;1.60;1.30;;;6.10;98.20;;;;;;5048176;28;20785;-75
2021/11/03 05:36:26;;;;;;;1.63;1.37;;;6.10;98.20;;;;;;5045488;28;20450;-75
2021/11/03 05:38:53;;;;;;;1.60;1.40;;;6.10;98.20;;;;;;5039042;28;20463;-76
2021/11/03 05:41:20;;;;;;;1.60;1.30;;;6.10;98.20;;;;;;5041438;28;20458;-76
2021/11/03 05:43:47;;;;;;;1.60;1.40;;;6.10;98.20;;;;;;5043692;28;20479;-77
2021/11/03 05:46:17;;;;;;;1.60;1.30;;;6.10;98.20;;;;;;5045141;28;20469;-74
2021/11/03 05:51:16;;;;;;;1.60;1.30;;;6.20;98.20;;;;;;5022465;28;20487;-75
2021/11/03 05:53:43;;;;;;;1.60;1.30;;;6.20;98.20;;;;;;5022997;28;20500;-75
2021/11/03 05:56:10;;;;;;;1.70;1.40;;;6.20;98.20;;;;;;5014861;28;20470;-76
2021/11/03 05:58:38;;;;;;;1.60;1.30;;;6.20;98.20;;;;;;5001161;28;20464;-76
2021/11/03 06:01:06;;;;;;;1.60;1.30;;;6.20;98.20;;;;;;5005349;28;20470;-76
2021/11/03 06:03:34;;;;;;;1.67;1.40;;;6.20;98.20;;;;;;5014336;28;20694;-76
2021/11/03 06:06:03;;;;;;;1.60;1.40;;;6.20;98.20;;;;;;5003200;28;20458;-73
2021/11/03 06:08:30;;;;;;;1.60;1.30;;;6.20;98.20;;;;;;5000131;28;21354;-74
2021/11/03 06:10:59;;;;;;;1.60;1.40;;;6.20;98.20;;;;;;5008422;28;20504;-75
2021/11/03 06:13:26;;;;;;;1.60;1.40;;;6.10;98.20;;;;;;5019407;28;20468;-75
2021/11/03 06:15:54;;;;;;;1.60;1.30;;;6.10;98.20;;;;;;5014978;28;20823;-76
2021/11/03 06:18:21;;;;;;;1.60;1.40;;;6.10;98.20;;;;;;5007553;28;20526;-74
2021/11/03 06:20:49;;;;;;;1.60;1.40;;;6.10;98.20;;;;;;4999077;28;21152;-73
2021/11/03 06:23:16;;;;;;;1.60;1.40;;;6.10;98.20;;;;;;4997697;28;20465;-73
2021/11/03 06:25:43;;;;;;;1.60;1.40;;;6.00;98.20;;;;;;5003872;28;20476;-73
2021/11/03 06:28:11;;;;;;;1.60;1.30;;;6.00;98.20;;;;;;5006510;28;20456;-73
2021/11/03 06:30:38;;;;;;;1.60;1.30;;;6.00;98.20;;;;;;5000724;28;21201;-73
2021/11/03 06:33:06;;;;;;;1.70;1.40;;;6.00;98.20;;;;;;5007573;28;20856;-75
2021/11/03 06:35:34;;;;;;;1.60;1.40;;;6.00;98.20;;;;;;5009061;28;20495;-76
2021/11/03 06:38:03;;;;;;;1.60;1.40;;;6.00;98.20;;;;;;5009354;28;20468;-73
2021/11/03 06:40:30;;;;;;;1.60;1.30;;;6.00;98.20;;;;;;5006311;28;20463;-73
2021/11/03 06:42:57;;;;;;;1.60;1.33;;;6.10;98.20;;;;;;5009093;28;20842;-75
2021/11/03 06:45:25;;;;;;;1.70;1.50;;;6.10;98.20;;;;;;5012205;28;20482;-75
2021/11/03 06:47:53;;;;;;;1.60;1.30;;;6.10;98.20;;;;;;5016081;28;20463;-76
2021/11/03 06:50:23;;;;;;;1.63;1.30;;;6.10;98.20;;;;;;5019084;28;20476;-76
2021/11/03 06:52:51;;;;;;;2.13;1.93;;;6.10;98.20;;;;;;5012954;28;20484;-76
2021/11/03 06:55:20;;;;;;;1.60;1.30;;;6.20;98.20;;;;;;5012789;28;20817;-75
2021/11/03 06:57:48;;;;;;;1.60;1.30;;;6.20;98.20;;;;;;5008304;28;20479;-74
2021/11/03 07:00:20;;;;;;;1.60;1.30;;;6.20;98.20;;;;;;5010636;28;20781;-73
2021/11/03 07:02:47;;;;;;;1.60;1.30;;;6.20;98.20;;;;;;5006752;28;20445;-73
2021/11/03 07:05:14;;;;;;;1.60;1.30;;;6.20;98.20;;;;;;5023588;28;20487;-75
2021/11/03 07:07:41;;;;;;;1.63;1.40;;;6.20;98.20;;;;;;5017832;28;20472;-74
2021/11/03 07:10:11;;;;;;;1.60;1.30;;;6.30;98.20;;;;;;5004899;28;20833;-74
2021/11/03 07:12:39;;;;;;;1.60;1.30;;;6.30;98.20;;;;;;5014050;28;20829;-74
2021/11/03 07:15:06;;;;;;;1.60;1.40;;;6.30;98.20;;;;;;5011081;28;20484;-74
2021/11/03 07:17:33;;;;;;;1.67;1.40;;;6.40;98.20;;;;;;5018720;28;20459;-74
2021/11/03 07:20:00;;;;;;;1.60;1.30;;;6.40;98.20;;;;;;5007904;28;20699;-74
2021/11/03 07:22:27;;;;;;;1.70;1.40;;;6.40;98.20;;;;;;5010078;28;20460;-74
2021/11/03 07:24:54;;;;;;;1.60;1.30;;;6.40;98.20;;;;;;5003791;28;20634;-74
2021/11/03 07:27:21;;;;;;;1.60;1.30;;;6.50;98.20;;;;;;5012002;28;20464;-74
2021/11/03 07:29:49;;;;;;;1.60;1.30;;;6.50;98.20;;;;;;5013475;28;20487;-75
2021/11/03 07:32:16;;;;;;;1.60;1.40;;;6.50;98.20;;;;;;5010465;28;20536;-75
2021/11/03 07:34:43;;;;;;;1.60;1.40;;;6.50;98.20;;;;;;5001572;28;20488;-75
2021/11/03 07:37:10;;;;;;;1.60;1.30;;;6.50;98.20;;;;;;5014607;28;20472;-75
2021/11/03 07:39:37;;;;;;;1.60;1.30;;;6.60;98.20;;;;;;5010951;28;20468;-75
2021/11/03 07:42:04;;;;;;;1.60;1.30;;;6.60;98.20;;;;;;5025530;28;20463;-75
2021/11/03 07:44:31;;;;;;;1.60;1.30;;;6.60;98.20;;;;;;5006556;28;20484;-75
2021/11/03 07:46:59;;;;;;;1.60;1.30;;;6.60;98.20;;;;;;5015947;28;20958;-75
2021/11/03 07:49:26;;;;;;;1.60;1.30;;;6.60;98.20;;;;;;5013548;28;20541;-75
2021/11/03 07:51:53;;;;;;;1.60;1.30;;;6.60;98.20;;;;;;5008387;28;20843;-75
2021/11/03 07:54:20;;;;;;;1.60;1.30;;;6.70;98.20;;;;;;5002564;28;20488;-75
2021/11/03 07:56:47;;;;;;;1.60;1.30;;;6.70;98.20;;;;;;5002159;28;20468;-76
2021/11/03 07:59:16;;;;;;;1.63;1.40;;;6.80;98.20;;;;;;4999264;28;20463;-75
2021/11/03 08:01:43;;;;;;;1.63;1.30;;;6.90;98.20;;;;;;5012426;28;20459;-76
2021/11/03 08:04:11;;;;;;;1.60;1.30;;;6.90;98.20;;;;;;5008556;28;20589;-75
2021/11/03 08:06:40;;;;;;;1.60;1.30;;;7.00;98.20;;;;;;5012877;28;20464;-75
2021/11/03 08:09:08;;;;;;;1.60;1.30;;;7.10;98.20;;;;;;5009672;28;20506;-74
2021/11/03 08:11:45;;;;;;;1.60;1.30;;;7.10;98.20;;;;;;5025605;28;20487;-75
2021/11/03 08:14:12;;;;;;;1.60;1.30;;;7.20;98.20;;;;;;5007654;28;21085;-74
2021/11/03 08:16:47;;;;;;;1.60;1.30;;;7.20;98.20;;;;;;5013399;28;20499;-75
2021/11/03 08:19:16;;;;;;;1.60;1.30;;;7.20;98.20;;;;;;5009096;28;20479;-75
2021/11/03 08:21:42;;;;;;;1.60;1.30;;;7.30;98.20;;;;;;5005576;28;20460;-75
2021/11/03 08:24:09;;;;;;;1.63;1.30;;;7.30;98.20;;;;;;5005173;28;20536;-75
2021/11/03 08:26:37;;;;;;;1.60;1.30;;;7.30;98.20;;;;;;5012662;28;20463;-73
2021/11/03 08:29:03;;;;;;;1.60;1.30;;;7.30;98.20;;;;;;5006657;28;20456;-73
2021/11/03 08:31:31;;;;;;;1.60;1.30;;;7.40;98.20;;;;;;5006235;28;20979;-73
2021/11/03 08:33:57;;;;;;;6.10;1.77;;;7.40;98.20;;;;;;5005687;28;20873;-72
2021/11/03 08:36:26;;;;;;;1.60;1.30;;;7.40;98.20;;;;;;5007935;28;20467;-73
2021/11/03 08:38:55;;;;;;;1.60;1.30;;;7.50;98.20;;;;;;5004382;28;20927;-73
2021/11/03 08:41:22;;;;;;;1.60;1.30;;;7.50;98.20;;;;;;5004157;28;20870;-73
2021/11/03 08:43:51;;;;;;;1.60;1.30;;;7.50;98.20;;;;;;5005522;28;20546;-73
2021/11/03 08:46:18;;;;;;;1.60;1.30;;;7.50;98.20;;;;;;5002159;28;20904;-74
2021/11/03 08:48:45;;;;;;;1.70;1.43;;;7.50;98.20;;;;;;5001144;28;20479;-74
2021/11/03 08:51:12;;;;;;;1.60;1.30;;;7.60;98.20;;;;;;5004931;28;20482;-73
2021/11/03 08:53:40;;;;;;;1.60;1.20;;;7.50;98.20;;;;;;4999186;28;20502;-73
2021/11/03 08:56:08;;;;;;;1.67;1.30;;;7.60;98.20;;;;;;5003516;28;20472;-73
2021/11/03 08:58:35;;;;;;;1.60;1.27;;;7.60;98.20;;;;;;4997493;28;20464;-73
2021/11/03 09:01:02;;;;;;;1.60;1.30;;;7.60;98.20;;;;;;5017918;28;20470;-74
2021/11/03 09:03:29;;;;;;;1.63;1.30;;;7.60;98.20;;;;;;5013845;28;20470;-74
2021/11/03 09:05:55;;;;;;;1.60;1.27;;;7.60;98.20;;;;;;5011144;28;20464;-74
2021/11/03 09:08:22;;;;;;;1.63;1.30;;;7.70;98.20;;;;;;4994356;28;20473;-74
2021/11/03 09:10:55;;;;;;;1.60;1.20;;;7.70;98.20;;;;;;5009988;28;20829;-74
2021/11/03 09:13:24;;;;;;;1.60;1.30;;;7.70;98.20;;;;;;4998202;28;20477;-74
2021/11/03 09:15:52;;;;;;;1.60;1.33;;;7.70;98.20;;;;;;5011333;28;20544;-75
2021/11/03 09:18:20;;;;;;;1.60;1.30;;;7.80;98.20;;;;;;5006885;28;20468;-74
2021/11/03 09:20:49;;;;;;;1.60;1.30;;;7.80;98.20;;;;;;5008380;28;20472;-74
2021/11/03 09:23:17;;;;;;;1.60;1.30;;;7.90;98.20;;;;;;4999283;28;20465;-74
2021/11/03 09:25:53;;;;;;;1.60;1.27;;;7.90;98.20;;;;;;5008337;28;20470;-75
2021/11/03 09:28:21;;;;;;;1.60;1.20;;;8.00;98.20;;;;;;5002343;28;20541;-73
2021/11/03 09:30:48;;;;;;;1.60;1.20;;;8.00;98.20;;;;;;5012202;28;20685;-74
2021/11/03 09:33:15;;;;;;;1.60;1.30;;;8.00;98.20;;;;;;5016004;28;20491;-74
2021/11/03 09:35:44;;;;;;;1.60;1.30;;;8.10;98.20;;;;;;5013939;28;20467;-74
2021/11/03 09:38:13;;;;;;;1.60;1.30;;;8.10;98.20;;;;;;5007212;28;20475;-74
2021/11/03 09:40:49;;;;;;;1.60;1.30;;;8.20;98.20;;;;;;5001745;28;20484;-74
2021/11/03 09:43:27;;;;;;;1.60;1.30;;;8.20;98.20;;;;;;5005850;28;20467;-73
2021/11/03 09:45:54;;;;;;;1.60;1.30;;;8.30;98.20;;;;;;5001101;28;20961;-73
2021/11/03 09:48:25;;;;;;;1.60;1.30;;;8.30;98.20;;;;;;5002860;28;20980;-73
2021/11/03 09:50:56;;;;;;;1.60;1.30;;;8.30;98.20;;;;;;5001644;28;21023;-75
2021/11/03 09:53:30;;;;;;;1.60;1.20;;;8.30;98.20;;;;;;5000467;28;20586;-73
2021/11/03 09:55:57;;;;;;;1.60;1.30;;;8.40;98.20;;;;;;5002334;28;20502;-74
2021/11/03 09:58:54;;;;;;;1.60;1.30;;;8.40;98.20;;;;;;5003320;28;21278;-74
2021/11/03 10:01:27;;;;;;;1.60;1.20;;;8.50;98.20;;;;;;5002736;28;20549;-74
2021/11/03 10:04:11;;;;;;;1.60;1.20;;;8.50;98.20;;;;;;4997987;28;20491;-74
2021/11/03 10:06:48;;;;;;;1.60;1.20;;;8.50;98.20;;;;;;5010024;28;20521;-74
2021/11/03 10:09:15;;;;;;;1.60;1.20;;;8.50;98.20;;;;;;5003374;28;20470;-74
2021/11/03 10:11:46;;;;;;;1.60;1.20;;;8.50;98.20;;;;;;5002957;28;20920;-73
2021/11/03 10:14:15;;;;;;;1.60;1.30;;;8.50;98.20;;;;;;5007623;28;20499;-74
2021/11/03 10:16:45;;;;;;;1.60;1.20;;;8.60;98.20;;;;;;5008923;28;20483;-74
2021/11/03 10:19:29;;;;;;;1.60;1.30;;;8.60;98.20;;;;;;5000801;28;20478;-75
2021/11/03 10:21:59;;;;;;;1.60;1.27;;;8.60;98.20;;;;;;5008379;28;20519;-74
2021/11/03 10:24:32;;;;;;;1.60;1.20;;;8.60;98.20;;;;;;5007222;28;20579;-74
2021/11/03 10:27:02;;;;;;;1.60;1.20;;;8.60;98.20;;;;;;5014509;28;20515;-73
2021/11/03 10:29:33;;;;;;;1.60;1.30;;;8.60;98.20;;;;;;5005994;28;20468;-74
2021/11/03 10:32:03;;;;;;;1.60;1.30;;;8.70;98.20;;;;;;5004664;28;20480;-74
2021/11/03 10:34:43;;;;;;;1.60;1.20;;;8.70;98.20;;;;;;5001895;28;20491;-74
2021/11/03 10:37:20;;;;;;;1.60;1.20;;;8.80;98.20;;;;;;5000527;28;20474;-75
2021/11/03 10:39:55;;;;;;;1.60;1.27;;;8.80;98.20;;;;;;5006993;28;20543;-73
2021/11/03 10:42:27;;;;;;;1.60;1.20;;;8.80;98.20;;;;;;5001558;28;20838;-74
2021/11/03 10:45:18;;;;;;;1.60;1.20;;;8.90;98.20;;;;;;5007025;28;20494;-74
2021/11/03 10:47:46;;;;;;;1.60;1.20;;;9.00;98.20;;;;;;5009214;28;20460;-74
2021/11/03 10:50:27;;;;;;;1.60;1.20;;;9.00;98.20;;;;;;5011346;28;20538;-74
2021/11/03 10:52:57;;;;;;;1.60;1.20;;;9.10;98.20;;;;;;4988774;28;20498;-74
2021/11/03 10:55:28;;;;;;;1.60;1.30;;;9.10;98.20;;;;;;5000607;28;20488;-74
2021/11/03 10:58:04;;;;;;;1.60;1.20;;;9.20;98.20;;;;;;5013571;28;20463;-74
2021/11/03 11:00:36;;;;;;;1.60;1.20;;;9.20;98.20;;;;;;5007315;28;21049;-73
2021/11/03 11:03:07;;;;;;;1.60;1.20;;;9.20;98.20;;;;;;5018368;28;20891;-75
2021/11/03 11:05:38;;;;;;;1.60;1.20;;;9.30;98.20;;;;;;5016553;28;21066;-73
2021/11/03 11:08:12;;;;;;;1.60;1.20;;;9.30;98.20;;;;;;5015505;28;20739;-74
2021/11/03 11:10:43;;;;;;;1.60;1.20;;;9.30;98.20;;;;;;5007677;28;20543;-74
2021/11/03 11:13:19;;;;;;;1.60;1.20;;;9.30;98.20;;;;;;5006213;28;20620;-74
2021/11/03 11:15:55;;;;;;;1.60;1.30;;;9.30;98.20;;;;;;4999330;28;20460;-73
2021/11/03 11:18:55;;;;;;;1.60;1.20;;;9.30;98.20;;;;;;5004753;28;20591;-75
2021/11/03 11:21:36;;;;;;;1.60;1.23;;;9.30;98.20;;;;;;5002608;28;20468;-75
2021/11/03 11:24:16;;;;;;;1.70;1.53;;;9.30;98.20;;;;;;5000748;28;20485;-75
2021/11/03 11:26:49;;;;;;;1.60;1.20;;;9.40;98.20;;;;;;5017344;28;20581;-78
2021/11/03 11:32:21;;;;;;;1.60;1.33;;;9.40;98.20;;;;;;5019506;28;20891;-76
2021/11/03 11:35:27;;;;;;;1.60;1.10;;;9.40;98.20;;;;;;5028801;28;20513;-75
2021/11/03 11:38:02;;;;;;;1.60;1.20;;;9.40;98.20;;;;;;5012250;28;21211;-76
2021/11/03 11:40:41;;;;;;;1.60;1.20;;;9.40;98.20;;;;;;5054354;22;21704;-75
2021/11/03 11:43:16;;;;;;;1.60;1.10;;;9.40;98.20;;;;;;5056130;28;20461;-74
2021/11/03 11:45:45;;;;;;;1.60;1.20;;;9.40;98.20;;;;;;5057136;28;20476;-74
2021/11/03 11:48:22;;;;;;;1.60;1.30;;;9.40;98.20;;;;;;5060787;28;20461;-74
2021/11/03 11:50:52;;;;;;;1.60;1.20;;;9.30;98.20;;;;;;5059082;28;20482;-74
2021/11/03 11:53:29;;;;;;;1.60;1.20;;;9.30;98.20;;;;;;5039759;28;20502;-73
2021/11/03 11:56:29;;;;;;;1.60;1.20;;;9.40;98.20;;;;;;5032991;28;20467;-74
2021/11/03 11:59:03;;;;;;;1.60;1.20;;;9.40;98.20;;;;;;4958502;28;20886;-74
2021/11/03 12:01:43;;;;;;;1.60;1.23;;;9.40;98.20;;;;;;4959050;28;20494;-74
2021/11/03 12:04:35;;;;;;;1.60;1.20;;;9.40;98.20;;;;;;5007286;28;20458;-75
2021/11/03 12:07:23;;;;;;;1.60;1.20;;;9.40;98.20;;;;;;5038051;28;20468;-74
2021/11/03 12:10:27;;;;;;;1.60;1.20;;;9.40;98.20;;;;;;5044990;28;20560;-74
2021/11/03 12:13:27;;;;;;;1.60;1.20;;;9.30;98.20;;;;;;4958332;28;20500;-73
2021/11/03 12:16:25;;;;;;;1.60;1.20;;;9.30;98.20;;;;;;5036176;28;20458;-73
2021/11/03 12:18:54;;;;;;;1.60;1.20;;;9.30;98.20;;;;;;5041546;28;21028;-73
2021/11/03 12:21:41;;;;;;;1.60;1.20;;;9.30;98.20;;;;;;5039989;28;20482;-72
2021/11/03 12:24:37;;;;;;;1.60;1.20;;;9.30;98.20;;;;;;5037215;28;20516;-72
2021/11/03 12:27:32;;;;;;;1.60;1.30;;;9.30;98.20;;;;;;5034551;28;20462;-73
2021/11/03 12:30:03;;;;;;;1.60;1.40;;;9.30;98.20;;;;;;4992574;28;20567;-74
2021/11/03 12:32:39;;;;;;;1.60;1.20;;;9.20;98.20;;;;;;5030218;28;20459;-74
2021/11/03 12:36:00;;;;;;;1.60;1.20;;;9.20;98.20;;;;;;5044516;28;20465;-74
2021/11/03 12:38:59;;;;;;;1.60;1.20;;;9.20;98.20;;;;;;4942701;29;20961;-74
2021/11/03 12:41:38;;;;;;;1.60;1.10;;;9.20;98.20;;;;;;4937475;29;20537;-74
2021/11/03 12:44:12;;;;;;;1.57;1.20;;;9.20;98.20;;;;;;5010248;28;20486;-74
2021/11/03 12:46:39;;;;;;;1.60;1.20;;;9.20;98.20;;;;;;5041016;28;20463;-74
2021/11/03 12:49:12;;;;;;;1.60;1.20;;;9.20;98.20;;;;;;5043923;28;20981;-74
2021/11/03 12:51:48;;;;;;;1.60;1.20;;;9.20;98.20;;;;;;5034725;28;20485;-75
2021/11/03 12:54:20;;;;;;;1.60;1.20;;;9.20;98.20;;;;;;5027511;28;20884;-73
2021/11/03 12:56:57;;;;;;;1.60;1.10;;;9.20;98.20;;;;;;5034353;28;20471;-74
2021/11/03 12:59:26;;;;;;;1.60;1.30;;;9.20;98.20;;;;;;5040243;28;20532;-74
2021/11/03 13:01:55;;;;;;;1.60;1.20;;;9.10;98.20;;;;;;5034254;28;20497;-74
2021/11/03 13:04:25;;;;;;;1.60;1.20;;;9.10;98.20;;;;;;5031467;28;20843;-74
2021/11/03 13:06:55;;;;;;;1.60;1.20;;;9.10;98.20;;;;;;5037157;28;20474;-75
2021/11/03 13:09:37;;;;;;;1.60;1.20;;;9.20;98.20;;;;;;5037452;28;20478;-74
2021/11/03 13:12:07;;;;;;;1.60;1.20;;;9.10;98.20;;;;;;5048976;28;21226;-75
2021/11/03 13:14:36;;;;;;;1.60;1.10;;;9.10;98.20;;;;;;5045947;28;20489;-74
2021/11/03 13:17:04;;;;;;;1.60;1.20;;;9.10;98.20;;;;;;5047253;28;20647;-75
2021/11/03 13:19:36;;;;;;;1.60;1.23;;;9.10;98.20;;;;;;5045149;28;21002;-75
2021/11/03 13:22:15;;;;;;;1.57;1.20;;;9.10;98.20;;;;;;5042995;28;20908;-75